Time;durP1;ratioP1;P1;durP2;ratioP2;P2;SDS_P1;SDS_P2;PMS_P1;PMS_P2;Temp;Humidity;BMP_temperature;BMP_pressure;BME280_temperature;BME280_humidity;BME280_pressure;Samples;Min_cycle;Max_cycle;Signal;HPM_P1;HPM_P2
2023/01/15 00:00:57;;;;;;;103.75;55.17;;;;;;;4.89;100.00;100864.94;4921334;29;20495;-85
2023/01/15 00:03:22;;;;;;;98.63;55.85;;;;;;;4.87;100.00;100861.59;4919850;29;20039;-85
2023/01/15 00:05:47;;;;;;;105.72;59.08;;;;;;;4.93;100.00;100866.38;4918275;29;20571;-86
2023/01/15 00:08:13;;;;;;;107.88;58.47;;;;;;;4.90;100.00;100859.56;4918821;29;20099;-86
2023/01/15 00:10:38;;;;;;;101.30;58.05;;;;;;;4.91;100.00;100855.97;4917958;29;20111;-86
2023/01/15 00:13:04;;;;;;;106.25;56.63;;;;;;;4.96;100.00;100848.59;4918269;29;20492;-85
2023/01/15 00:15:30;;;;;;;107.95;58.63;;;;;;;5.01;100.00;100856.09;4918352;29;20040;-84
2023/01/15 00:17:55;;;;;;;110.13;59.00;;;;;;;5.11;100.00;100849.19;4919724;29;20036;-85
2023/01/15 00:20:22;;;;;;;103.20;56.60;;;;;;;5.06;100.00;100846.09;4918776;29;20062;-84
2023/01/15 00:22:47;;;;;;;106.60;59.15;;;;;;;5.10;100.00;100844.91;4918516;29;20043;-88
2023/01/15 00:27:56;;;;;;;112.65;58.92;;;;;;;5.26;100.00;100850.63;4917671;29;20048;-83
2023/01/15 00:30:23;;;;;;;97.95;56.92;;;;;;;5.29;100.00;100845.13;4933695;29;20055;-85
2023/01/15 00:32:49;;;;;;;103.72;56.67;;;;;;;5.39;100.00;100846.06;4919067;29;20036;-87
2023/01/15 00:35:20;;;;;;;98.35;57.03;;;;;;;5.30;100.00;100832.84;4919737;29;20047;-92
2023/01/15 00:37:46;;;;;;;104.78;56.90;;;;;;;5.29;100.00;100833.78;4922241;29;20035;-86
2023/01/15 00:40:13;;;;;;;103.97;58.28;;;;;;;5.28;100.00;100821.59;4906004;29;20415;-85
2023/01/15 00:42:39;;;;;;;107.88;57.97;;;;;;;5.28;100.00;100830.31;4921783;29;20550;-86
2023/01/15 00:45:09;;;;;;;114.65;60.42;;;;;;;5.28;100.00;100822.44;4920659;29;20047;-85
2023/01/15 00:47:43;;;;;;;99.72;57.70;;;;;;;5.28;100.00;100811.06;4921511;29;20050;-83
2023/01/15 00:50:12;;;;;;;105.13;58.97;;;;;;;5.32;100.00;100813.34;4922244;29;20043;-85
2023/01/15 00:52:41;;;;;;;106.97;59.72;;;;;;;5.30;100.00;100820.53;4905346;29;20044;-90
2023/01/15 00:55:07;;;;;;;112.20;59.58;;;;;;;5.32;100.00;100812.50;4925147;29;20036;-87
2023/01/15 00:57:36;;;;;;;108.75;58.70;;;;;;;5.30;100.00;100807.41;4922425;29;20059;-86
2023/01/15 01:00:05;;;;;;;115.40;59.95;;;;;;;5.25;100.00;100804.28;4905003;29;20024;-90
2023/01/15 01:02:31;;;;;;;111.93;57.90;;;;;;;5.19;100.00;100802.13;4908092;29;20036;-91
2023/01/15 01:04:57;;;;;;;108.45;60.95;;;;;;;5.21;100.00;100813.34;4906566;29;20040;-87
2023/01/15 01:07:22;;;;;;;114.43;61.78;;;;;;;5.24;100.00;100810.47;4923336;29;20039;-88
2023/01/15 01:09:50;;;;;;;109.05;60.08;;;;;;;5.29;100.00;100813.59;4925329;29;20091;-90
2023/01/15 01:12:20;;;;;;;111.78;60.75;;;;;;;5.30;100.00;100799.50;4921051;29;20035;-88
2023/01/15 01:14:45;;;;;;;114.13;62.25;;;;;;;5.34;100.00;100794.81;4887947;29;20048;-90
2023/01/15 01:17:11;;;;;;;112.20;61.53;;;;;;;5.35;100.00;100792.09;4902134;29;20037;-85
2023/01/15 01:19:37;;;;;;;108.45;58.95;;;;;;;5.53;100.00;100801.16;4902623;29;20506;-85
2023/01/15 01:22:02;;;;;;;103.72;59.25;;;;;;;5.66;100.00;100795.72;4920668;29;20420;-83
2023/01/15 01:24:28;;;;;;;106.18;60.65;;;;;;;5.52;100.00;100796.84;4920336;29;20036;-91
2023/01/15 01:26:54;;;;;;;101.85;59.28;;;;;;;5.79;100.00;100801.66;4920610;29;20163;-90
2023/01/15 01:29:21;;;;;;;105.72;59.10;;;;;;;5.97;100.00;100794.06;4887769;29;20091;-84
2023/01/15 01:31:49;;;;;;;104.00;56.78;;;;;;;6.08;100.00;100801.94;4920762;29;20036;-87
2023/01/15 01:34:17;;;;;;;100.32;55.15;;;;;;;6.09;100.00;100787.81;4919910;29;20377;-85
2023/01/15 01:36:43;;;;;;;99.93;57.25;;;;;;;6.06;100.00;100798.59;4920905;29;20035;-86
2023/01/15 01:39:14;;;;;;;101.20;56.92;;;;;;;6.11;100.00;100801.66;4902522;29;20048;-86
2023/01/15 01:41:40;;;;;;;99.85;55.13;;;;;;;6.17;100.00;100798.53;4921496;29;20171;-91
2023/01/15 01:44:27;;;;;;;103.07;56.78;;;;;;;5.92;100.00;100791.00;4919409;29;20477;-88
2023/01/15 01:46:53;;;;;;;101.63;60.00;;;;;;;5.88;100.00;100789.56;4920434;29;20090;-88
2023/01/15 01:49:20;;;;;;;102.60;58.53;;;;;;;5.75;100.00;100789.72;4923510;29;20510;-88
2023/01/15 01:51:50;;;;;;;101.43;58.50;;;;;;;5.81;100.00;100788.38;4929097;29;20036;-88
2023/01/15 01:54:20;;;;;;;107.25;60.90;;;;;;;5.79;100.00;100785.88;4915068;29;20080;-83
2023/01/15 01:56:48;;;;;;;101.10;57.63;;;;;;;5.79;100.00;100783.25;4931593;29;20436;-87
2023/01/15 01:59:17;;;;;;;101.70;59.03;;;;;;;5.73;100.00;100781.13;4906229;29;20040;-89
2023/01/15 02:01:42;;;;;;;104.18;59.47;;;;;;;5.70;100.00;100784.00;4922021;29;20062;-84
2023/01/15 02:04:09;;;;;;;104.50;60.67;;;;;;;5.71;100.00;100778.59;4921813;29;20087;-91
2023/01/15 02:06:37;;;;;;;107.00;60.58;;;;;;;5.67;100.00;100771.91;4905522;29;20040;-84
2023/01/15 02:09:05;;;;;;;108.25;62.17;;;;;;;5.72;100.00;100764.50;4904951;29;20476;-87
2023/01/15 02:11:33;;;;;;;103.32;60.30;;;;;;;5.69;100.00;100759.50;4905185;29;20472;-84
2023/01/15 02:14:18;;;;;;;109.93;61.53;;;;;;;5.68;100.00;100752.56;4921058;29;20044;-85
2023/01/15 02:17:03;;;;;;;109.10;62.00;;;;;;;5.76;100.00;100737.97;4921807;29;20040;-88
2023/01/15 02:19:35;;;;;;;106.85;61.67;;;;;;;5.81;100.00;100736.59;4922450;29;20040;-91
2023/01/15 02:22:55;;;;;;;111.13;60.35;;;;;;;5.93;100.00;100732.19;4904968;29;20036;-84
2023/01/15 02:25:50;;;;;;;106.97;60.10;;;;;;;6.04;100.00;100735.56;4811052;29;20071;-83
2023/01/15 02:28:53;;;;;;;107.15;60.33;;;;;;;5.89;100.00;100728.97;4900004;29;20075;-84
2023/01/15 02:31:39;;;;;;;107.63;60.92;;;;;;;5.83;100.00;100720.72;4828715;29;20085;-85
2023/01/15 02:34:19;;;;;;;108.47;60.33;;;;;;;5.74;100.00;100725.75;4844136;29;20081;-86
2023/01/15 02:36:53;;;;;;;107.57;62.15;;;;;;;5.81;100.00;100714.72;4828929;29;20049;-83
2023/01/15 02:39:44;;;;;;;109.15;63.25;;;;;;;5.85;100.00;100716.16;4820710;29;20049;-86
2023/01/15 02:42:12;;;;;;;113.55;64.25;;;;;;;5.81;100.00;100714.72;4880022;29;20636;-85
2023/01/15 02:44:48;;;;;;;110.65;63.60;;;;;;;5.73;100.00;100713.56;4884620;29;20057;-85
2023/01/15 02:47:19;;;;;;;108.70;61.95;;;;;;;5.78;100.00;100712.34;4901842;29;20040;-85
2023/01/15 02:49:46;;;;;;;115.22;65.47;;;;;;;5.70;100.00;100705.94;4885353;29;20135;-85
2023/01/15 02:52:23;;;;;;;112.63;63.90;;;;;;;5.74;100.00;100707.34;4900188;29;20041;-83
2023/01/15 02:55:05;;;;;;;113.03;63.58;;;;;;;5.79;100.00;100706.16;4901526;29;20040;-83
2023/01/15 02:57:36;;;;;;;117.97;63.05;;;;;;;5.79;100.00;100690.38;4902056;29;20036;-91
2023/01/15 03:00:08;;;;;;;110.55;65.40;;;;;;;5.85;100.00;100684.59;4884219;29;20041;-88
2023/01/15 03:02:38;;;;;;;112.53;63.43;;;;;;;5.90;100.00;100687.72;4902001;29;20028;-85
2023/01/15 03:05:07;;;;;;;104.95;60.42;;;;;;;6.01;100.00;100690.28;4885040;29;20049;-86
2023/01/15 03:07:41;;;;;;;107.60;61.67;;;;;;;5.93;100.00;100690.09;4885759;29;20044;-86
2023/01/15 03:10:08;;;;;;;105.32;59.97;;;;;;;6.01;100.00;100695.53;4902443;29;20041;-89
2023/01/15 03:13:01;;;;;;;105.93;62.92;;;;;;;6.01;100.00;100698.16;4903852;29;20040;-90
2023/01/15 03:18:30;;;;;;;109.25;62.40;;;;;;;6.07;100.00;100695.84;4885315;29;20055;-88
2023/01/15 03:21:01;;;;;;;104.00;61.28;;;;;;;6.06;100.00;100690.72;4888283;29;20045;-89
2023/01/15 03:23:29;;;;;;;115.38;60.50;;;;;;;6.06;100.00;100681.03;4886080;29;20045;-89
2023/01/15 03:25:55;;;;;;;107.43;60.47;;;;;;;5.99;100.00;100686.94;4885672;29;20051;-85
2023/01/15 03:28:26;;;;;;;110.88;62.55;;;;;;;6.00;100.00;100680.72;4885610;29;20473;-84
2023/01/15 03:30:52;;;;;;;108.55;61.72;;;;;;;5.96;100.00;100676.69;4886033;29;20041;-86
2023/01/15 03:33:18;;;;;;;117.43;62.55;;;;;;;6.00;100.00;100672.84;4887258;29;20404;-86
2023/01/15 03:35:57;;;;;;;119.40;63.88;;;;;;;5.94;100.00;100655.75;4886286;29;20049;-92
2023/01/15 03:38:53;;;;;;;114.68;65.88;;;;;;;5.86;100.00;100657.38;4900079;29;20080;-84
2023/01/15 03:42:08;;;;;;;113.35;63.63;;;;;;;5.83;100.00;100644.44;4881567;29;20045;-84
2023/01/15 03:44:54;;;;;;;111.40;62.67;;;;;;;6.00;100.00;100630.75;4882801;29;20056;-86
2023/01/15 03:47:46;;;;;;;110.82;61.88;;;;;;;6.07;100.00;100635.34;4883458;29;20041;-91
2023/01/15 03:50:23;;;;;;;105.22;62.15;;;;;;;6.23;100.00;100624.34;4881694;29;20048;-83
2023/01/15 03:53:10;;;;;;;110.60;60.35;;;;;;;6.44;100.00;100609.31;4880040;29;20060;-88
2023/01/15 03:55:57;;;;;;;110.65;61.53;;;;;;;6.45;100.00;100611.00;4888002;29;20040;-90
2023/01/15 03:58:28;;;;;;;104.32;58.83;;;;;;;6.27;100.00;100612.56;4869106;29;20093;-87
2023/01/15 04:00:58;;;;;;;;;;;;;;;6.30;100.00;100609.66;4882268;29;20044;-88
2023/01/15 04:03:28;;;;;;;104.03;58.72;;;;;;;6.28;100.00;100593.19;4884895;29;19915;-85
2023/01/15 04:05:57;;;;;;;99.70;58.72;;;;;;;6.36;100.00;100606.53;4884546;29;20083;-83
2023/01/15 04:08:25;;;;;;;106.78;60.00;;;;;;;6.52;100.00;100604.22;4869758;29;20084;-84
2023/01/15 04:10:55;;;;;;;100.78;60.05;;;;;;;6.48;100.00;100613.34;4886150;29;20059;-85
2023/01/15 04:13:24;;;;;;;95.20;57.67;;;;;;;6.42;100.00;100608.63;4883547;29;20065;-90
2023/01/15 04:15:52;;;;;;;112.55;60.72;;;;;;;6.22;100.00;100606.88;4888706;29;20045;-86
2023/01/15 04:18:18;;;;;;;105.00;60.38;;;;;;;6.29;100.00;100612.47;4887284;29;20055;-87
2023/01/15 04:20:44;;;;;;;106.72;60.30;;;;;;;6.18;100.00;100621.28;4887414;29;20044;-90
2023/01/15 04:23:11;;;;;;;102.93;59.95;;;;;;;6.20;100.00;100619.31;4907797;29;20031;-92
2023/01/15 04:25:36;;;;;;;115.55;63.17;;;;;;;6.17;100.00;100616.97;4939239;29;20487;-89
2023/01/15 04:28:02;;;;;;;103.13;60.85;;;;;;;6.27;100.00;100612.56;4922270;29;20043;-87
2023/01/15 04:30:28;;;;;;;107.07;61.35;;;;;;;6.20;100.00;100601.75;4920620;29;20044;-84
2023/01/15 04:32:53;;;;;;;106.15;60.95;;;;;;;6.16;100.00;100599.53;4937641;29;20031;-86
2023/01/15 04:35:19;;;;;;;105.28;62.85;;;;;;;5.96;100.00;100600.41;4938951;29;20039;-83
2023/01/15 04:37:45;;;;;;;115.82;62.65;;;;;;;5.84;100.00;100598.75;4939438;29;20115;-84
2023/01/15 04:45:52;;;;;;;123.25;63.92;;;;;;;5.97;100.00;100596.78;4936117;29;20039;-86
2023/01/15 04:48:18;;;;;;;107.72;62.53;;;;;;;6.19;100.00;100596.63;4936125;29;20031;-85
2023/01/15 04:50:43;;;;;;;108.38;63.38;;;;;;;6.22;100.00;100594.56;4936881;29;20561;-90
2023/01/15 04:53:08;;;;;;;115.55;63.13;;;;;;;6.12;100.00;100587.59;4936499;29;20024;-87
2023/01/15 04:55:34;;;;;;;109.82;64.00;;;;;;;6.03;100.00;100575.25;4920479;29;20043;-86
2023/01/15 04:57:59;;;;;;;120.57;65.25;;;;;;;6.15;100.00;100571.53;4943430;29;20032;-83
2023/01/15 05:00:25;;;;;;;116.70;62.53;;;;;;;6.14;100.00;100561.97;4943810;29;20027;-82
2023/01/15 05:02:50;;;;;;;112.65;62.40;;;;;;;6.33;100.00;100559.41;4944057;29;20043;-83
2023/01/15 05:05:16;;;;;;;108.68;62.20;;;;;;;6.22;100.00;100570.03;4944757;29;20484;-83
2023/01/15 05:07:41;;;;;;;107.25;59.65;;;;;;;6.37;100.00;100565.22;4944655;29;20032;-82
2023/01/15 05:10:07;;;;;;;113.00;61.17;;;;;;;6.29;100.00;100572.97;4926318;29;20046;-85
2023/01/15 05:12:33;;;;;;;104.88;60.10;;;;;;;6.42;100.00;100574.41;4945743;29;20508;-84
2023/01/15 05:14:58;;;;;;;116.35;64.07;;;;;;;6.13;100.00;100578.75;4944811;29;20099;-84
2023/01/15 05:17:24;;;;;;;112.78;65.18;;;;;;;6.26;100.00;100584.63;4943425;29;20392;-84
2023/01/15 05:19:49;;;;;;;107.93;63.03;;;;;;;6.51;100.00;100593.81;4948626;29;20059;-84
2023/01/15 05:22:15;;;;;;;104.95;60.17;;;;;;;6.49;100.00;100578.19;4947286;29;20047;-84
2023/01/15 05:24:41;;;;;;;111.15;62.97;;;;;;;6.20;100.00;100574.59;4949130;29;20028;-83
2023/01/15 05:27:06;;;;;;;116.25;62.90;;;;;;;6.22;100.00;100560.34;4953341;29;20035;-85
2023/01/15 05:29:32;;;;;;;113.78;64.80;;;;;;;6.12;100.00;100556.84;4951107;29;20086;-83
2023/01/15 05:31:57;;;;;;;110.78;64.10;;;;;;;6.28;100.00;100545.81;4962650;28;20048;-88
2023/01/15 05:34:23;;;;;;;113.95;65.85;;;;;;;6.13;100.00;100544.53;4962142;28;20091;-86
2023/01/15 05:36:48;;;;;;;112.78;63.70;;;;;;;6.05;100.00;100545.19;4948475;29;20040;-84
2023/01/15 05:39:14;;;;;;;110.55;64.00;;;;;;;6.07;100.00;100545.03;4946881;29;20475;-84
2023/01/15 05:41:49;;;;;;;113.38;63.55;;;;;;;6.09;100.00;100562.38;4947608;29;20131;-83
2023/01/15 05:44:18;;;;;;;115.13;64.50;;;;;;;6.01;100.00;100548.22;4946862;29;20050;-84
2023/01/15 05:46:44;;;;;;;111.50;63.17;;;;;;;6.13;100.00;100531.38;4942379;29;20035;-84
2023/01/15 05:49:12;;;;;;;114.38;66.03;;;;;;;6.35;100.00;100519.78;4941409;29;20042;-85
2023/01/15 05:51:38;;;;;;;116.68;66.25;;;;;;;6.13;100.00;100516.41;4941750;29;20130;-86
2023/01/15 05:54:06;;;;;;;119.70;67.18;;;;;;;6.10;100.00;100508.78;4940919;29;20031;-86
2023/01/15 05:56:34;;;;;;;124.38;67.40;;;;;;;6.05;100.00;100507.53;4942327;29;20039;-85
2023/01/15 05:59:00;;;;;;;120.20;67.88;;;;;;;6.14;100.00;100515.44;4941477;29;20044;-84
2023/01/15 06:01:25;;;;;;;113.03;64.35;;;;;;;6.28;100.00;100514.25;4944603;29;20102;-83
2023/01/15 06:03:52;;;;;;;103.28;60.83;;;;;;;6.47;100.00;100506.38;4944455;29;20040;-85
2023/01/15 06:06:17;;;;;;;103.80;62.53;;;;;;;6.43;100.00;100502.34;4944525;29;20083;-84
2023/01/15 06:08:44;;;;;;;106.82;61.80;;;;;;;6.54;100.00;100494.34;4942118;29;20043;-87
2023/01/15 06:11:11;;;;;;;106.32;60.60;;;;;;;6.59;100.00;100492.13;4942462;29;20032;-87
2023/01/15 06:13:38;;;;;;;109.28;62.25;;;;;;;6.54;100.00;100504.03;4945683;29;20035;-84
2023/01/15 06:16:04;;;;;;;108.80;62.50;;;;;;;6.47;100.00;100509.00;4949672;29;20031;-84
2023/01/15 06:18:30;;;;;;;110.32;61.95;;;;;;;6.44;100.00;100514.56;4950454;29;20036;-84
2023/01/15 06:20:55;;;;;;;107.18;63.25;;;;;;;6.32;100.00;100513.00;4946789;29;20082;-88
2023/01/15 06:23:21;;;;;;;112.22;64.43;;;;;;;6.51;100.00;100515.69;4942292;29;20062;-87
2023/01/15 06:25:46;;;;;;;105.22;63.00;;;;;;;6.63;100.00;100519.00;4941080;29;20035;-83
2023/01/15 06:28:12;;;;;;;108.63;62.92;;;;;;;6.66;100.00;100530.09;4941522;29;20551;-87
2023/01/15 06:30:39;;;;;;;106.82;63.55;;;;;;;6.44;100.00;100535.59;4940520;29;20115;-85
2023/01/15 06:33:06;;;;;;;111.88;64.88;;;;;;;6.42;100.00;100527.03;4940980;29;20039;-89
2023/01/15 06:35:32;;;;;;;115.65;64.57;;;;;;;6.35;100.00;100525.06;4924376;29;20103;-88
2023/01/15 06:37:57;;;;;;;111.63;66.32;;;;;;;6.19;100.00;100515.88;4940882;29;20119;-85
2023/01/15 06:40:24;;;;;;;106.88;62.92;;;;;;;6.30;100.00;100504.41;4940512;29;20031;-90
2023/01/15 06:48:26;;;;;;;110.70;63.92;;;;;;;6.49;100.00;100496.56;4940633;29;20095;-86
2023/01/15 06:50:53;;;;;;;115.32;65.25;;;;;;;6.22;100.00;100484.03;4940158;29;20043;-86
2023/01/15 06:53:19;;;;;;;117.05;66.78;;;;;;;6.16;100.00;100483.75;4922347;29;20387;-87
2023/01/15 06:55:45;;;;;;;117.93;66.90;;;;;;;6.19;100.00;100483.47;4921251;29;20060;-90
2023/01/15 06:58:11;;;;;;;112.50;63.70;;;;;;;6.19;100.00;100479.06;4922495;29;20040;-90
2023/01/15 07:00:37;;;;;;;121.43;70.68;;;;;;;5.97;100.00;100465.25;4920856;29;20036;-88
2023/01/15 07:03:03;;;;;;;122.03;70.78;;;;;;;6.00;100.00;100465.03;4922142;29;20063;-89
2023/01/15 07:05:29;;;;;;;118.20;67.95;;;;;;;6.09;100.00;100464.19;4922128;29;20047;-86
2023/01/15 07:07:56;;;;;;;128.10;71.20;;;;;;;6.02;100.00;100476.22;4929168;29;20036;-87
2023/01/15 07:10:22;;;;;;;129.32;72.28;;;;;;;5.90;100.00;100482.56;4938685;29;20502;-87
2023/01/15 07:12:48;;;;;;;119.50;67.28;;;;;;;6.15;100.00;100489.97;4938068;29;20036;-91
2023/01/15 07:15:13;;;;;;;123.32;72.47;;;;;;;6.06;100.00;100477.63;4921340;29;20044;-86
2023/01/15 07:17:39;;;;;;;125.15;69.60;;;;;;;6.14;100.00;100475.13;4937884;29;20040;-85
2023/01/15 07:20:05;;;;;;;115.63;68.05;;;;;;;6.16;100.00;100473.22;4937083;29;20038;-86
2023/01/15 07:22:31;;;;;;;127.95;72.38;;;;;;;6.09;100.00;100467.66;4920359;29;20038;-86
2023/01/15 07:24:56;;;;;;;119.40;67.35;;;;;;;6.26;100.00;100466.19;4937571;29;20032;-87
2023/01/15 07:27:22;;;;;;;114.15;66.90;;;;;;;6.46;100.00;100462.63;4937559;29;20103;-83
2023/01/15 07:29:51;;;;;;;113.45;65.07;;;;;;;6.60;100.00;100466.63;4937604;29;20127;-86
2023/01/15 07:32:17;;;;;;;119.55;68.38;;;;;;;6.30;100.00;100458.84;4921598;29;20039;-88
2023/01/15 07:34:49;;;;;;;113.82;66.18;;;;;;;6.44;100.00;100467.16;4942250;29;20044;-87
2023/01/15 07:37:14;;;;;;;122.13;71.53;;;;;;;6.16;100.00;100468.78;4939824;29;20059;-88
2023/01/15 07:39:40;;;;;;;124.95;72.05;;;;;;;6.05;100.00;100476.78;4937142;29;20062;-85
2023/01/15 07:50:23;;;;;;;125.68;72.45;;;;;;;6.32;100.00;100473.53;4936897;29;20039;-86
2023/01/15 07:52:48;;;;;;;128.00;70.93;;;;;;;6.31;100.00;100468.38;4939709;29;20039;-85
2023/01/15 07:55:14;;;;;;;128.15;69.22;;;;;;;6.41;100.00;100475.34;4936759;29;20225;-85
2023/01/15 07:57:41;;;;;;;111.55;64.90;;;;;;;6.55;100.00;100464.41;4936335;29;20043;-86
2023/01/15 08:50:27;;;;;;;135.35;75.57;;;;;;;6.58;100.00;100414.09;4911483;29;20042;-83
2023/01/15 09:27:11;;;;;;;119.25;71.35;;;;;;;7.07;100.00;100404.31;5219175;23;20060;-86
2023/01/15 09:29:36;;;;;;;123.85;71.28;;;;;;;7.01;100.00;100397.00;4955806;29;20040;-88
2023/01/15 09:32:02;;;;;;;124.68;71.15;;;;;;;7.15;100.00;100396.56;4949602;29;20040;-86
2023/01/15 09:34:30;;;;;;;116.97;68.13;;;;;;;7.26;100.00;100399.81;4941737;29;20044;-88
2023/01/15 09:36:55;;;;;;;116.20;69.28;;;;;;;7.21;100.00;100377.53;4940544;29;20040;-87
2023/01/15 09:39:21;;;;;;;123.22;71.03;;;;;;;7.36;100.00;100391.06;4943443;29;20054;-86
2023/01/15 09:42:04;;;;;;;121.07;65.72;;;;;;;7.42;100.00;100387.84;4944684;29;20043;-88
2023/01/15 09:44:48;;;;;;;117.82;66.70;;;;;;;7.36;100.00;100378.69;4939858;29;20072;-90
2023/01/15 09:47:25;;;;;;;112.13;67.63;;;;;;;7.38;100.00;100373.31;4939040;29;20043;-87
2023/01/15 09:50:09;;;;;;;111.03;65.22;;;;;;;7.32;100.00;100381.78;4938885;29;20407;-86
2023/01/15 09:52:34;;;;;;;110.20;63.78;;;;;;;7.37;100.00;100369.81;4939113;29;20032;-90
2023/01/15 09:55:32;;;;;;;105.65;62.67;;;;;;;7.39;100.00;100370.50;4941524;29;20032;-91
2023/01/15 09:58:03;;;;;;;106.63;61.88;;;;;;;7.65;100.00;100370.69;4858007;29;20053;-84
2023/01/15 10:00:40;;;;;;;104.78;65.43;;;;;;;7.38;100.00;100368.88;4877792;29;20077;-84
2023/01/15 10:03:30;;;;;;;112.35;66.95;;;;;;;7.23;100.00;100370.28;4874151;29;20041;-88
2023/01/15 10:06:06;;;;;;;108.13;65.03;;;;;;;7.11;100.00;100371.44;4876451;29;20128;-87
2023/01/15 10:09:13;;;;;;;113.32;66.70;;;;;;;7.39;100.00;100375.78;4936872;29;20063;-87
2023/01/15 10:14:47;;;;;;;113.03;66.50;;;;;;;7.20;100.00;100360.03;4955120;29;20054;-86
2023/01/15 10:17:38;;;;;;;116.32;68.43;;;;;;;6.98;100.00;100355.13;4941350;29;20045;-88
2023/01/15 10:20:04;;;;;;;122.95;68.80;;;;;;;7.18;100.00;100346.19;4913673;29;20047;-86
2023/01/15 10:23:04;;;;;;;111.90;67.82;;;;;;;7.08;100.00;100345.38;4941446;29;20036;-86
2023/01/15 10:25:41;;;;;;;109.35;68.05;;;;;;;7.30;100.00;100350.28;4940143;29;20036;-88
2023/01/15 10:28:27;;;;;;;115.97;68.28;;;;;;;7.30;100.00;100345.03;4942759;29;20040;-86
2023/01/15 10:30:55;;;;;;;112.75;65.35;;;;;;;7.25;100.00;100347.28;4941481;29;20035;-89
2023/01/15 10:33:39;;;;;;;115.43;67.63;;;;;;;7.17;100.00;100344.53;4943248;29;20042;-87
2023/01/15 10:36:04;;;;;;;121.35;69.50;;;;;;;7.11;100.00;100337.19;4946514;29;20067;-87
2023/01/15 10:38:42;;;;;;;117.97;68.82;;;;;;;7.03;100.00;100331.81;4940755;29;20031;-88
2023/01/15 10:41:29;;;;;;;117.70;67.50;;;;;;;7.01;100.00;100328.50;4938232;29;20046;-85
2023/01/15 10:44:10;;;;;;;117.10;70.35;;;;;;;6.88;100.00;100314.81;4934440;29;20046;-86
2023/01/15 10:46:39;;;;;;;116.38;67.68;;;;;;;6.80;100.00;100309.41;4941239;29;20035;-89
2023/01/15 10:49:17;;;;;;;117.20;69.32;;;;;;;6.76;100.00;100314.97;4938903;29;20039;-86
2023/01/15 10:51:49;;;;;;;115.22;69.55;;;;;;;6.82;100.00;100315.38;4938265;29;20042;-86
2023/01/15 10:54:23;;;;;;;122.90;72.30;;;;;;;6.72;100.00;100326.78;4938681;29;20454;-88
2023/01/15 10:57:07;;;;;;;115.82;68.97;;;;;;;6.68;100.00;100312.22;4937226;29;20106;-86
2023/01/15 10:59:47;;;;;;;123.72;67.13;;;;;;;6.81;100.00;100308.44;4938149;29;20066;-85
2023/01/15 11:02:38;;;;;;;122.43;70.70;;;;;;;6.97;100.00;100292.88;4937173;29;20059;-88
2023/01/15 11:05:04;;;;;;;126.63;73.38;;;;;;;6.82;100.00;100299.59;4936995;29;20052;-87
2023/01/15 11:07:40;;;;;;;122.53;70.80;;;;;;;6.80;100.00;100283.91;4938381;29;20031;-87
2023/01/15 11:10:15;;;;;;;121.63;71.70;;;;;;;6.88;100.00;100275.28;4926011;29;20534;-89
2023/01/15 11:21:18;;;;;;;125.00;70.82;;;;;;;7.09;100.00;100247.72;4936386;29;20132;-85
2023/01/15 11:23:44;;;;;;;119.75;67.65;;;;;;;7.13;100.00;100235.94;4938279;29;20055;-86
2023/01/15 11:26:18;;;;;;;120.75;66.80;;;;;;;7.04;100.00;100222.81;4938308;29;20554;-86
2023/01/15 11:28:45;;;;;;;116.68;66.30;;;;;;;7.17;100.00;100223.28;4937236;29;20031;-86
2023/01/15 11:31:21;;;;;;;114.45;66.00;;;;;;;7.31;100.00;100220.16;4938707;29;20062;-86
2023/01/15 11:34:05;;;;;;;110.43;63.85;;;;;;;7.46;100.00;100217.81;4959807;28;20036;-86
2023/01/15 11:36:31;;;;;;;116.47;65.32;;;;;;;7.44;100.00;100211.88;4937734;29;20040;-89
2023/01/15 11:38:57;;;;;;;115.63;66.68;;;;;;;7.46;100.00;100216.03;4937008;29;20032;-85
2023/01/15 11:50:54;;;;;;;106.20;62.45;;;;;;;7.69;100.00;100190.84;4859048;29;20049;-91
2023/01/15 11:53:35;;;;;;;115.57;63.47;;;;;;;7.71;100.00;100196.00;4863293;29;20133;-87
2023/01/15 11:56:08;;;;;;;107.50;63.50;;;;;;;7.68;100.00;100191.84;4865770;29;20515;-91
2023/01/15 11:58:46;;;;;;;101.97;62.80;;;;;;;7.88;100.00;100202.25;4879925;29;20073;-91
2023/01/15 12:01:33;;;;;;;106.80;62.08;;;;;;;7.98;100.00;100209.09;4910092;29;20048;-90
2023/01/15 12:04:23;;;;;;;112.80;61.90;;;;;;;7.85;100.00;100202.53;4940333;29;20032;-87
2023/01/15 12:06:50;;;;;;;98.93;58.10;;;;;;;7.75;100.00;100198.19;4941370;29;20027;-90
2023/01/15 12:09:22;;;;;;;102.75;59.58;;;;;;;7.82;100.00;100187.03;4944437;29;20028;-92
2023/01/15 12:12:20;;;;;;;98.28;58.45;;;;;;;7.83;100.00;100194.78;4947283;29;20036;-91
2023/01/15 12:15:11;;;;;;;100.13;57.55;;;;;;;7.94;100.00;100186.63;4946577;29;20036;-89
2023/01/15 12:18:02;;;;;;;98.45;58.28;;;;;;;7.67;100.00;100161.19;4949146;29;20746;-91
2023/01/15 12:21:47;;;;;;;101.43;58.55;;;;;;;7.60;100.00;100168.03;4945334;29;20558;-88
2023/01/15 12:24:52;;;;;;;107.78;59.75;;;;;;;7.70;100.00;100162.69;4934665;23;20140;-88
2023/01/15 12:36:15;;;;;;;102.80;60.72;;;;;;;7.53;100.00;100153.81;3106172;27;20315;-90
2023/01/15 12:39:08;;;;;;;105.53;62.47;;;;;;;7.57;100.00;100147.25;4939386;29;20063;-89
2023/01/15 12:45:07;;;;;;;109.93;62.22;;;;;;;7.57;100.00;100125.31;4926681;29;20032;-87
2023/01/15 12:47:45;;;;;;;103.50;62.60;;;;;;;7.54;100.00;100115.91;4919829;29;20048;-89
2023/01/15 12:50:34;;;;;;;106.95;60.78;;;;;;;7.74;100.00;100120.03;4918578;29;20044;-89
2023/01/15 12:53:07;;;;;;;116.50;62.85;;;;;;;7.80;100.00;100116.78;4922217;29;20052;-90
2023/01/15 12:55:51;;;;;;;108.18;62.42;;;;;;;7.74;100.00;100112.13;4929323;29;20036;-89
2023/01/15 12:58:51;;;;;;;107.28;61.33;;;;;;;7.85;100.00;100086.47;4925815;29;20055;-90
2023/01/15 13:01:45;;;;;;;117.15;61.03;;;;;;;7.95;100.00;100092.47;4918148;29;20488;-91
2023/01/15 13:04:23;;;;;;;111.63;64.15;;;;;;;7.82;100.00;100076.22;4903387;29;20041;-88
2023/01/15 13:07:00;;;;;;;102.72;59.58;;;;;;;8.02;100.00;100082.94;4903932;29;20045;-89
2023/01/15 13:09:39;;;;;;;108.07;63.03;;;;;;;7.98;100.00;100078.97;4903749;29;20040;-89
2023/01/15 13:12:16;;;;;;;115.00;64.15;;;;;;;7.93;100.00;100070.66;4903959;29;20033;-91
2023/01/15 13:14:42;;;;;;;114.43;62.40;;;;;;;7.88;100.00;100071.16;4902423;29;20044;-90
2023/01/15 13:17:39;;;;;;;111.70;64.75;;;;;;;7.77;100.00;100063.50;4912423;29;20024;-90
2023/01/15 13:20:33;;;;;;;113.53;65.88;;;;;;;7.79;100.00;100054.44;4918974;29;20044;-91
2023/01/15 13:23:26;;;;;;;119.20;66.07;;;;;;;7.74;100.00;100042.69;4922061;29;20072;-89
2023/01/15 13:26:15;;;;;;;;;;;;;;;7.73;100.00;100030.47;4923615;29;20059;-91
2023/01/15 13:29:05;;;;;;;117.90;64.55;;;;;;;7.82;100.00;100023.47;4919048;29;19927;-90
2023/01/15 13:32:08;;;;;;;116.97;64.80;;;;;;;7.94;100.00;100006.38;4926838;29;20040;-87
2023/01/15 13:35:19;;;;;;;113.28;65.32;;;;;;;7.99;100.00;100006.72;4921434;29;20044;-91
2023/01/15 13:37:52;;;;;;;112.97;62.75;;;;;;;8.20;100.00;100007.13;4883925;29;20049;-88
2023/01/15 13:40:33;;;;;;;114.15;65.68;;;;;;;8.18;100.00;99998.56;4884949;29;20059;-89
2023/01/15 13:43:00;;;;;;;122.35;70.00;;;;;;;8.29;100.00;100008.84;4901059;29;20373;-91
2023/01/15 13:45:48;;;;;;;113.63;65.95;;;;;;;8.22;100.00;99989.31;4906992;29;20040;-90
2023/01/15 13:48:24;;;;;;;115.55;65.47;;;;;;;8.20;100.00;99994.78;4905393;29;20052;-91
2023/01/15 13:51:16;;;;;;;123.18;67.35;;;;;;;8.15;100.00;99988.31;4925267;29;20047;-90